sensor_id;sensor_type;location;lat;lon;timestamp;P1;durP1;ratioP1;P2;durP2;ratioP2
55655;SDS011;41530;52.382;5.270;2022-07-21T00:00:20;5.22;;;4.00;;
55655;SDS011;41530;52.382;5.270;2022-07-21T00:02:48;4.93;;;4.40;;
55655;SDS011;41530;52.382;5.270;2022-07-21T00:05:16;5.05;;;3.65;;
55655;SDS011;41530;52.382;5.270;2022-07-21T00:07:43;4.22;;;3.65;;
55655;SDS011;41530;52.382;5.270;2022-07-21T00:10:11;5.20;;;3.75;;
55655;SDS011;41530;52.382;5.270;2022-07-21T00:12:39;7.13;;;4.20;;
55655;SDS011;41530;52.382;5.270;2022-07-21T00:15:06;4.40;;;3.50;;
55655;SDS011;41530;52.382;5.270;2022-07-21T00:17:34;6.15;;;4.00;;
55655;SDS011;41530;52.382;5.270;2022-07-21T00:20:02;5.55;;;4.07;;
55655;SDS011;41530;52.382;5.270;2022-07-21T00:22:30;4.30;;;3.90;;
55655;SDS011;41530;52.382;5.270;2022-07-21T00:24:57;6.20;;;3.42;;
55655;SDS011;41530;52.382;5.270;2022-07-21T00:27:25;3.85;;;3.42;;
55655;SDS011;41530;52.382;5.270;2022-07-21T00:29:55;6.57;;;3.90;;
55655;SDS011;41530;52.382;5.270;2022-07-21T00:32:22;5.72;;;3.22;;
55655;SDS011;41530;52.382;5.270;2022-07-21T00:34:48;4.85;;;3.58;;
55655;SDS011;41530;52.382;5.270;2022-07-21T00:37:15;3.75;;;3.35;;
55655;SDS011;41530;52.382;5.270;2022-07-21T00:39:42;3.95;;;3.40;;
55655;SDS011;41530;52.382;5.270;2022-07-21T00:42:08;5.78;;;3.67;;
55655;SDS011;41530;52.382;5.270;2022-07-21T00:44:46;8.38;;;3.63;;
55655;SDS011;41530;52.382;5.270;2022-07-21T00:47:13;4.30;;;3.47;;
55655;SDS011;41530;52.382;5.270;2022-07-21T00:49:39;4.07;;;3.35;;
55655;SDS011;41530;52.382;5.270;2022-07-21T00:52:07;5.43;;;4.15;;
55655;SDS011;41530;52.382;5.270;2022-07-21T00:54:33;4.70;;;3.60;;
55655;SDS011;41530;52.382;5.270;2022-07-21T00:57:00;4.57;;;3.55;;
55655;SDS011;41530;52.382;5.270;2022-07-21T00:59:27;4.10;;;3.70;;
55655;SDS011;41530;52.382;5.270;2022-07-21T01:01:55;3.97;;;3.55;;
55655;SDS011;41530;52.382;5.270;2022-07-21T01:04:22;4.45;;;3.45;;
55655;SDS011;41530;52.382;5.270;2022-07-21T01:06:49;4.72;;;3.75;;
55655;SDS011;41530;52.382;5.270;2022-07-21T01:09:16;6.57;;;3.53;;
55655;SDS011;41530;52.382;5.270;2022-07-21T01:11:42;4.05;;;3.63;;
55655;SDS011;41530;52.382;5.270;2022-07-21T01:14:09;8.10;;;3.60;;
55655;SDS011;41530;52.382;5.270;2022-07-21T01:16:36;7.00;;;3.80;;
55655;SDS011;41530;52.382;5.270;2022-07-21T01:19:04;4.07;;;3.40;;
55655;SDS011;41530;52.382;5.270;2022-07-21T01:21:33;5.78;;;3.60;;
55655;SDS011;41530;52.382;5.270;2022-07-21T01:24:05;4.65;;;3.78;;
55655;SDS011;41530;52.382;5.270;2022-07-21T01:26:40;4.80;;;3.53;;
55655;SDS011;41530;52.382;5.270;2022-07-21T01:29:09;5.65;;;3.22;;
55655;SDS011;41530;52.382;5.270;2022-07-21T01:31:36;4.88;;;3.50;;
55655;SDS011;41530;52.382;5.270;2022-07-21T01:34:04;5.45;;;4.28;;
55655;SDS011;41530;52.382;5.270;2022-07-21T01:36:31;5.60;;;4.05;;
55655;SDS011;41530;52.382;5.270;2022-07-21T01:38:57;5.50;;;3.75;;
55655;SDS011;41530;52.382;5.270;2022-07-21T01:41:42;4.23;;;3.83;;
55655;SDS011;41530;52.382;5.270;2022-07-21T01:44:10;3.45;;;3.15;;
55655;SDS011;41530;52.382;5.270;2022-07-21T01:46:42;5.43;;;3.42;;
55655;SDS011;41530;52.382;5.270;2022-07-21T01:49:11;5.93;;;3.60;;
55655;SDS011;41530;52.382;5.270;2022-07-21T01:51:40;4.35;;;3.78;;
55655;SDS011;41530;52.382;5.270;2022-07-21T01:54:07;5.63;;;3.70;;
55655;SDS011;41530;52.382;5.270;2022-07-21T01:56:35;5.70;;;3.40;;
55655;SDS011;41530;52.382;5.270;2022-07-21T01:59:03;4.93;;;3.78;;
55655;SDS011;41530;52.382;5.270;2022-07-21T02:01:31;3.88;;;3.17;;
55655;SDS011;41530;52.382;5.270;2022-07-21T02:03:59;7.70;;;3.63;;
55655;SDS011;41530;52.382;5.270;2022-07-21T02:06:27;4.40;;;3.35;;
55655;SDS011;41530;52.382;5.270;2022-07-21T02:08:55;7.22;;;4.32;;
55655;SDS011;41530;52.382;5.270;2022-07-21T02:11:22;7.13;;;4.10;;
55655;SDS011;41530;52.382;5.270;2022-07-21T02:13:48;4.63;;;3.35;;
55655;SDS011;41530;52.382;5.270;2022-07-21T02:16:15;5.15;;;3.90;;
55655;SDS011;41530;52.382;5.270;2022-07-21T02:18:43;5.07;;;3.60;;
55655;SDS011;41530;52.382;5.270;2022-07-21T02:21:10;4.38;;;3.80;;
55655;SDS011;41530;52.382;5.270;2022-07-21T02:23:36;4.80;;;3.47;;
55655;SDS011;41530;52.382;5.270;2022-07-21T02:26:03;4.10;;;3.70;;
55655;SDS011;41530;52.382;5.270;2022-07-21T02:28:30;4.40;;;4.00;;
55655;SDS011;41530;52.382;5.270;2022-07-21T02:30:56;4.07;;;3.60;;
55655;SDS011;41530;52.382;5.270;2022-07-21T02:33:23;7.00;;;4.40;;
55655;SDS011;41530;52.382;5.270;2022-07-21T02:35:50;4.25;;;3.85;;
55655;SDS011;41530;52.382;5.270;2022-07-21T02:38:16;6.03;;;4.10;;
55655;SDS011;41530;52.382;5.270;2022-07-21T02:40:43;5.72;;;3.92;;
55655;SDS011;41530;52.382;5.270;2022-07-21T02:43:09;3.80;;;3.40;;
55655;SDS011;41530;52.382;5.270;2022-07-21T02:45:36;4.50;;;3.50;;
55655;SDS011;41530;52.382;5.270;2022-07-21T02:48:04;5.07;;;4.43;;
55655;SDS011;41530;52.382;5.270;2022-07-21T02:50:34;8.25;;;4.05;;
55655;SDS011;41530;52.382;5.270;2022-07-21T02:53:04;6.00;;;3.97;;
55655;SDS011;41530;52.382;5.270;2022-07-21T02:55:33;4.55;;;4.03;;
55655;SDS011;41530;52.382;5.270;2022-07-21T02:58:08;5.47;;;4.72;;
55655;SDS011;41530;52.382;5.270;2022-07-21T03:00:36;4.60;;;3.90;;
55655;SDS011;41530;52.382;5.270;2022-07-21T03:03:04;5.18;;;3.97;;
55655;SDS011;41530;52.382;5.270;2022-07-21T03:08:00;5.55;;;3.72;;
55655;SDS011;41530;52.382;5.270;2022-07-21T03:10:27;4.72;;;3.95;;
55655;SDS011;41530;52.382;5.270;2022-07-21T03:12:54;4.25;;;3.80;;
55655;SDS011;41530;52.382;5.270;2022-07-21T03:15:21;8.77;;;4.35;;
55655;SDS011;41530;52.382;5.270;2022-07-21T03:17:47;4.55;;;3.90;;
55655;SDS011;41530;52.382;5.270;2022-07-21T03:20:14;7.22;;;4.28;;
55655;SDS011;41530;52.382;5.270;2022-07-21T03:22:41;4.95;;;3.92;;
55655;SDS011;41530;52.382;5.270;2022-07-21T03:25:07;4.63;;;3.83;;
55655;SDS011;41530;52.382;5.270;2022-07-21T03:27:34;11.20;;;3.90;;
55655;SDS011;41530;52.382;5.270;2022-07-21T03:30:03;4.75;;;3.88;;
55655;SDS011;41530;52.382;5.270;2022-07-21T03:32:33;4.53;;;3.67;;
55655;SDS011;41530;52.382;5.270;2022-07-21T03:35:01;3.75;;;3.38;;
55655;SDS011;41530;52.382;5.270;2022-07-21T03:37:29;5.10;;;4.22;;
55655;SDS011;41530;52.382;5.270;2022-07-21T03:39:55;5.75;;;4.15;;
55655;SDS011;41530;52.382;5.270;2022-07-21T03:42:22;5.22;;;4.05;;
55655;SDS011;41530;52.382;5.270;2022-07-21T03:44:49;6.78;;;4.50;;
55655;SDS011;41530;52.382;5.270;2022-07-21T03:47:15;4.30;;;3.90;;
55655;SDS011;41530;52.382;5.270;2022-07-21T03:49:42;4.38;;;3.95;;
55655;SDS011;41530;52.382;5.270;2022-07-21T03:52:08;5.25;;;4.50;;
55655;SDS011;41530;52.382;5.270;2022-07-21T03:54:35;8.20;;;6.50;;
55655;SDS011;41530;52.382;5.270;2022-07-21T03:57:01;6.82;;;5.10;;
55655;SDS011;41530;52.382;5.270;2022-07-21T03:59:28;5.93;;;4.93;;
55655;SDS011;41530;52.382;5.270;2022-07-21T04:01:54;9.93;;;4.47;;
55655;SDS011;41530;52.382;5.270;2022-07-21T04:04:21;4.68;;;4.10;;
55655;SDS011;41530;52.382;5.270;2022-07-21T04:06:47;5.93;;;4.13;;
55655;SDS011;41530;52.382;5.270;2022-07-21T04:09:14;5.80;;;3.92;;
55655;SDS011;41530;52.382;5.270;2022-07-21T04:11:44;8.13;;;4.70;;
55655;SDS011;41530;52.382;5.270;2022-07-21T04:14:10;6.30;;;4.68;;
55655;SDS011;41530;52.382;5.270;2022-07-21T04:16:37;7.32;;;4.22;;
55655;SDS011;41530;52.382;5.270;2022-07-21T04:19:04;9.88;;;4.95;;
55655;SDS011;41530;52.382;5.270;2022-07-21T04:21:31;5.20;;;4.53;;
55655;SDS011;41530;52.382;5.270;2022-07-21T04:23:57;5.28;;;4.25;;
55655;SDS011;41530;52.382;5.270;2022-07-21T04:26:24;6.32;;;4.18;;
55655;SDS011;41530;52.382;5.270;2022-07-21T04:28:51;4.72;;;3.97;;
55655;SDS011;41530;52.382;5.270;2022-07-21T04:31:18;4.43;;;4.03;;
55655;SDS011;41530;52.382;5.270;2022-07-21T04:33:44;6.07;;;4.63;;
55655;SDS011;41530;52.382;5.270;2022-07-21T04:36:11;5.10;;;4.57;;
55655;SDS011;41530;52.382;5.270;2022-07-21T04:38:38;8.98;;;4.35;;
55655;SDS011;41530;52.382;5.270;2022-07-21T04:41:04;7.15;;;5.25;;
55655;SDS011;41530;52.382;5.270;2022-07-21T04:43:31;5.78;;;4.38;;
55655;SDS011;41530;52.382;5.270;2022-07-21T04:45:58;5.85;;;4.53;;
55655;SDS011;41530;52.382;5.270;2022-07-21T04:48:25;5.97;;;5.00;;
55655;SDS011;41530;52.382;5.270;2022-07-21T04:50:52;7.82;;;5.53;;
55655;SDS011;41530;52.382;5.270;2022-07-21T04:53:18;6.35;;;5.43;;
55655;SDS011;41530;52.382;5.270;2022-07-21T04:55:45;7.15;;;5.28;;
55655;SDS011;41530;52.382;5.270;2022-07-21T04:58:11;5.43;;;4.35;;
55655;SDS011;41530;52.382;5.270;2022-07-21T05:00:38;6.22;;;4.45;;
55655;SDS011;41530;52.382;5.270;2022-07-21T05:03:04;5.85;;;4.30;;
55655;SDS011;41530;52.382;5.270;2022-07-21T05:05:31;6.40;;;4.45;;
55655;SDS011;41530;52.382;5.270;2022-07-21T05:07:57;5.10;;;4.07;;
55655;SDS011;41530;52.382;5.270;2022-07-21T05:10:24;6.68;;;4.60;;
55655;SDS011;41530;52.382;5.270;2022-07-21T05:12:51;8.57;;;4.68;;
55655;SDS011;41530;52.382;5.270;2022-07-21T05:15:18;6.43;;;5.10;;
55655;SDS011;41530;52.382;5.270;2022-07-21T05:17:44;5.90;;;5.13;;
55655;SDS011;41530;52.382;5.270;2022-07-21T05:20:11;8.73;;;5.82;;
55655;SDS011;41530;52.382;5.270;2022-07-21T05:22:38;7.38;;;5.13;;
55655;SDS011;41530;52.382;5.270;2022-07-21T05:25:05;6.35;;;4.47;;
55655;SDS011;41530;52.382;5.270;2022-07-21T05:27:32;5.18;;;4.65;;
55655;SDS011;41530;52.382;5.270;2022-07-21T05:29:59;9.77;;;4.82;;
55655;SDS011;41530;52.382;5.270;2022-07-21T05:32:26;7.32;;;4.63;;
55655;SDS011;41530;52.382;5.270;2022-07-21T05:34:52;5.00;;;3.85;;
55655;SDS011;41530;52.382;5.270;2022-07-21T05:37:19;5.20;;;4.35;;
55655;SDS011;41530;52.382;5.270;2022-07-21T05:39:46;5.60;;;4.03;;
55655;SDS011;41530;52.382;5.270;2022-07-21T05:42:12;6.60;;;4.90;;
55655;SDS011;41530;52.382;5.270;2022-07-21T05:44:39;4.80;;;4.03;;
55655;SDS011;41530;52.382;5.270;2022-07-21T05:47:05;5.97;;;4.68;;
55655;SDS011;41530;52.382;5.270;2022-07-21T05:49:32;6.50;;;4.55;;
55655;SDS011;41530;52.382;5.270;2022-07-21T05:51:58;7.10;;;4.32;;
55655;SDS011;41530;52.382;5.270;2022-07-21T05:54:25;5.60;;;4.20;;
55655;SDS011;41530;52.382;5.270;2022-07-21T05:56:51;7.60;;;4.82;;
55655;SDS011;41530;52.382;5.270;2022-07-21T05:59:18;6.35;;;5.28;;
55655;SDS011;41530;52.382;5.270;2022-07-21T06:01:45;9.50;;;4.50;;
55655;SDS011;41530;52.382;5.270;2022-07-21T06:04:11;6.47;;;4.55;;
55655;SDS011;41530;52.382;5.270;2022-07-21T06:06:38;8.75;;;6.40;;
55655;SDS011;41530;52.382;5.270;2022-07-21T06:09:04;7.20;;;4.45;;
55655;SDS011;41530;52.382;5.270;2022-07-21T06:11:31;7.35;;;4.78;;
55655;SDS011;41530;52.382;5.270;2022-07-21T06:14:02;5.50;;;4.70;;
55655;SDS011;41530;52.382;5.270;2022-07-21T06:16:29;4.35;;;3.80;;
55655;SDS011;41530;52.382;5.270;2022-07-21T06:18:56;7.22;;;4.35;;
55655;SDS011;41530;52.382;5.270;2022-07-21T06:21:23;4.63;;;3.97;;
55655;SDS011;41530;52.382;5.270;2022-07-21T06:23:49;5.45;;;4.90;;
55655;SDS011;41530;52.382;5.270;2022-07-21T06:26:17;7.15;;;5.47;;
55655;SDS011;41530;52.382;5.270;2022-07-21T06:28:43;5.95;;;5.03;;
55655;SDS011;41530;52.382;5.270;2022-07-21T06:31:10;7.53;;;4.93;;
55655;SDS011;41530;52.382;5.270;2022-07-21T06:33:36;6.60;;;4.82;;
55655;SDS011;41530;52.382;5.270;2022-07-21T06:36:03;6.25;;;5.30;;
55655;SDS011;41530;52.382;5.270;2022-07-21T06:38:30;6.07;;;4.22;;
55655;SDS011;41530;52.382;5.270;2022-07-21T06:40:57;7.40;;;5.20;;
55655;SDS011;41530;52.382;5.270;2022-07-21T06:43:23;6.10;;;4.78;;
55655;SDS011;41530;52.382;5.270;2022-07-21T06:45:54;7.18;;;5.55;;
55655;SDS011;41530;52.382;5.270;2022-07-21T06:48:22;5.15;;;4.22;;
55655;SDS011;41530;52.382;5.270;2022-07-21T06:50:48;7.75;;;5.20;;
55655;SDS011;41530;52.382;5.270;2022-07-21T06:53:15;9.60;;;6.15;;
55655;SDS011;41530;52.382;5.270;2022-07-21T06:55:42;8.52;;;5.70;;
55655;SDS011;41530;52.382;5.270;2022-07-21T06:58:14;9.95;;;5.90;;
55655;SDS011;41530;52.382;5.270;2022-07-21T07:00:43;8.48;;;6.10;;
55655;SDS011;41530;52.382;5.270;2022-07-21T07:03:12;11.63;;;5.80;;
55655;SDS011;41530;52.382;5.270;2022-07-21T07:05:39;10.05;;;6.88;;
55655;SDS011;41530;52.382;5.270;2022-07-21T07:08:06;12.35;;;8.05;;
55655;SDS011;41530;52.382;5.270;2022-07-21T07:10:37;14.02;;;9.30;;
55655;SDS011;41530;52.382;5.270;2022-07-21T07:13:04;12.05;;;9.43;;
55655;SDS011;41530;52.382;5.270;2022-07-21T07:15:51;13.20;;;9.40;;
55655;SDS011;41530;52.382;5.270;2022-07-21T07:18:17;14.85;;;8.75;;
55655;SDS011;41530;52.382;5.270;2022-07-21T07:20:46;14.80;;;10.60;;
55655;SDS011;41530;52.382;5.270;2022-07-21T07:23:13;17.00;;;11.48;;
55655;SDS011;41530;52.382;5.270;2022-07-21T07:25:42;18.65;;;11.90;;
55655;SDS011;41530;52.382;5.270;2022-07-21T07:28:09;21.48;;;13.60;;
55655;SDS011;41530;52.382;5.270;2022-07-21T07:30:36;18.08;;;12.13;;
55655;SDS011;41530;52.382;5.270;2022-07-21T07:33:02;23.33;;;13.52;;
55655;SDS011;41530;52.382;5.270;2022-07-21T07:35:29;20.45;;;12.00;;
55655;SDS011;41530;52.382;5.270;2022-07-21T07:37:56;25.30;;;15.52;;
55655;SDS011;41530;52.382;5.270;2022-07-21T07:40:23;20.70;;;13.05;;
55655;SDS011;41530;52.382;5.270;2022-07-21T07:42:50;25.35;;;13.77;;
55655;SDS011;41530;52.382;5.270;2022-07-21T07:45:17;19.50;;;13.52;;
55655;SDS011;41530;52.382;5.270;2022-07-21T07:47:43;24.45;;;14.13;;
55655;SDS011;41530;52.382;5.270;2022-07-21T07:50:11;19.02;;;13.73;;
55655;SDS011;41530;52.382;5.270;2022-07-21T07:52:39;22.73;;;14.52;;
55655;SDS011;41530;52.382;5.270;2022-07-21T07:55:07;21.33;;;14.05;;
55655;SDS011;41530;52.382;5.270;2022-07-21T07:57:37;21.13;;;13.00;;
55655;SDS011;41530;52.382;5.270;2022-07-21T08:00:05;21.70;;;13.32;;
55655;SDS011;41530;52.382;5.270;2022-07-21T08:02:55;23.48;;;12.85;;
55655;SDS011;41530;52.382;5.270;2022-07-21T08:05:21;21.95;;;14.23;;
55655;SDS011;41530;52.382;5.270;2022-07-21T08:07:48;21.30;;;12.88;;
55655;SDS011;41530;52.382;5.270;2022-07-21T08:10:15;20.88;;;12.23;;
55655;SDS011;41530;52.382;5.270;2022-07-21T08:13:01;22.13;;;11.77;;
55655;SDS011;41530;52.382;5.270;2022-07-21T08:15:32;22.08;;;13.10;;
55655;SDS011;41530;52.382;5.270;2022-07-21T08:17:59;21.20;;;12.57;;
55655;SDS011;41530;52.382;5.270;2022-07-21T08:20:26;26.88;;;13.10;;
55655;SDS011;41530;52.382;5.270;2022-07-21T08:22:53;22.02;;;12.45;;
55655;SDS011;41530;52.382;5.270;2022-07-21T08:25:20;23.50;;;11.90;;
55655;SDS011;41530;52.382;5.270;2022-07-21T08:27:46;17.42;;;11.30;;
55655;SDS011;41530;52.382;5.270;2022-07-21T08:30:13;15.82;;;10.73;;
55655;SDS011;41530;52.382;5.270;2022-07-21T08:32:40;21.55;;;11.25;;
55655;SDS011;41530;52.382;5.270;2022-07-21T08:35:07;19.73;;;10.85;;
55655;SDS011;41530;52.382;5.270;2022-07-21T08:37:35;17.85;;;10.25;;
55655;SDS011;41530;52.382;5.270;2022-07-21T08:40:05;14.57;;;9.88;;
55655;SDS011;41530;52.382;5.270;2022-07-21T08:42:35;16.95;;;10.35;;
55655;SDS011;41530;52.382;5.270;2022-07-21T08:45:03;15.80;;;9.32;;
55655;SDS011;41530;52.382;5.270;2022-07-21T08:47:30;16.50;;;9.63;;
55655;SDS011;41530;52.382;5.270;2022-07-21T08:49:57;14.93;;;9.25;;
55655;SDS011;41530;52.382;5.270;2022-07-21T08:52:25;15.68;;;10.05;;
55655;SDS011;41530;52.382;5.270;2022-07-21T08:54:51;14.80;;;9.48;;
55655;SDS011;41530;52.382;5.270;2022-07-21T08:57:18;15.13;;;9.88;;
55655;SDS011;41530;52.382;5.270;2022-07-21T08:59:45;13.63;;;8.05;;
55655;SDS011;41530;52.382;5.270;2022-07-21T09:02:26;13.90;;;8.30;;
55655;SDS011;41530;52.382;5.270;2022-07-21T09:04:54;12.63;;;6.60;;
55655;SDS011;41530;52.382;5.270;2022-07-21T09:07:20;9.30;;;6.05;;
55655;SDS011;41530;52.382;5.270;2022-07-21T09:09:59;9.52;;;6.45;;
55655;SDS011;41530;52.382;5.270;2022-07-21T09:12:26;11.80;;;5.80;;
55655;SDS011;41530;52.382;5.270;2022-07-21T09:17:45;6.13;;;4.13;;
55655;SDS011;41530;52.382;5.270;2022-07-21T09:20:32;8.77;;;4.32;;
55655;SDS011;41530;52.382;5.270;2022-07-21T09:25:49;5.38;;;3.20;;
55655;SDS011;41530;52.382;5.270;2022-07-21T09:28:26;5.53;;;3.00;;
55655;SDS011;41530;52.382;5.270;2022-07-21T09:31:04;4.32;;;3.10;;
55655;SDS011;41530;52.382;5.270;2022-07-21T09:33:44;3.70;;;2.72;;
55655;SDS011;41530;52.382;5.270;2022-07-21T09:41:19;5.00;;;2.03;;
55655;SDS011;41530;52.382;5.270;2022-07-21T09:43:51;3.72;;;2.00;;
55655;SDS011;41530;52.382;5.270;2022-07-21T09:46:20;3.42;;;2.20;;
55655;SDS011;41530;52.382;5.270;2022-07-21T09:48:50;6.13;;;1.92;;
55655;SDS011;41530;52.382;5.270;2022-07-21T09:51:38;2.83;;;1.85;;
55655;SDS011;41530;52.382;5.270;2022-07-21T09:54:11;3.78;;;1.65;;
55655;SDS011;41530;52.382;5.270;2022-07-21T09:56:43;3.38;;;1.90;;
55655;SDS011;41530;52.382;5.270;2022-07-21T09:59:12;3.10;;;1.80;;
55655;SDS011;41530;52.382;5.270;2022-07-21T10:01:39;4.90;;;1.33;;
55655;SDS011;41530;52.382;5.270;2022-07-21T10:04:07;1.60;;;1.50;;
55655;SDS011;41530;52.382;5.270;2022-07-21T10:06:35;2.15;;;1.55;;
55655;SDS011;41530;52.382;5.270;2022-07-21T10:09:05;1.52;;;1.23;;
55655;SDS011;41530;52.382;5.270;2022-07-21T10:11:37;1.20;;;0.93;;
55655;SDS011;41530;52.382;5.270;2022-07-21T10:14:06;2.80;;;1.40;;
55655;SDS011;41530;52.382;5.270;2022-07-21T10:16:36;3.40;;;1.10;;
55655;SDS011;41530;52.382;5.270;2022-07-21T10:21:46;1.92;;;1.20;;
55655;SDS011;41530;52.382;5.270;2022-07-21T10:24:22;5.47;;;2.08;;
55655;SDS011;41530;52.382;5.270;2022-07-21T10:27:05;14.02;;;8.15;;
55655;SDS011;41530;52.382;5.270;2022-07-21T10:29:50;11.20;;;5.97;;
55655;SDS011;41530;52.382;5.270;2022-07-21T10:32:27;9.20;;;5.13;;
55655;SDS011;41530;52.382;5.270;2022-07-21T10:35:27;8.30;;;3.75;;
55655;SDS011;41530;52.382;5.270;2022-07-21T10:37:55;5.78;;;3.45;;
55655;SDS011;41530;52.382;5.270;2022-07-21T10:47:57;4.63;;;2.10;;
55655;SDS011;41530;52.382;5.270;2022-07-21T10:50:34;4.13;;;2.05;;
55655;SDS011;41530;52.382;5.270;2022-07-21T10:53:12;3.10;;;1.85;;
55655;SDS011;41530;52.382;5.270;2022-07-21T10:55:46;3.20;;;2.25;;
55655;SDS011;41530;52.382;5.270;2022-07-21T11:03:46;2.95;;;1.77;;
55655;SDS011;41530;52.382;5.270;2022-07-21T11:06:46;3.90;;;2.00;;
55655;SDS011;41530;52.382;5.270;2022-07-21T11:09:14;3.08;;;1.83;;
55655;SDS011;41530;52.382;5.270;2022-07-21T11:14:37;2.72;;;1.90;;
55655;SDS011;41530;52.382;5.270;2022-07-21T11:17:10;3.70;;;2.15;;
55655;SDS011;41530;52.382;5.270;2022-07-21T11:19:50;3.25;;;2.00;;
55655;SDS011;41530;52.382;5.270;2022-07-21T11:22:20;3.17;;;2.20;;
55655;SDS011;41530;52.382;5.270;2022-07-21T11:27:28;3.78;;;1.85;;
55655;SDS011;41530;52.382;5.270;2022-07-21T11:30:00;4.00;;;2.00;;
55655;SDS011;41530;52.382;5.270;2022-07-21T11:32:31;3.85;;;2.00;;
55655;SDS011;41530;52.382;5.270;2022-07-21T11:34:59;2.83;;;2.10;;
55655;SDS011;41530;52.382;5.270;2022-07-21T11:42:30;7.65;;;2.30;;
55655;SDS011;41530;52.382;5.270;2022-07-21T11:44:58;3.63;;;2.30;;
55655;SDS011;41530;52.382;5.270;2022-07-21T11:47:25;2.90;;;1.92;;
55655;SDS011;41530;52.382;5.270;2022-07-21T11:49:53;3.25;;;2.20;;
55655;SDS011;41530;52.382;5.270;2022-07-21T11:52:24;3.78;;;2.05;;
55655;SDS011;41530;52.382;5.270;2022-07-21T11:54:53;3.33;;;2.22;;
55655;SDS011;41530;52.382;5.270;2022-07-21T11:57:21;2.38;;;1.65;;
55655;SDS011;41530;52.382;5.270;2022-07-21T11:59:49;3.45;;;2.00;;
55655;SDS011;41530;52.382;5.270;2022-07-21T12:02:19;2.08;;;1.70;;
55655;SDS011;41530;52.382;5.270;2022-07-21T12:04:51;2.08;;;1.60;;
55655;SDS011;41530;52.382;5.270;2022-07-21T12:07:24;2.58;;;1.60;;
55655;SDS011;41530;52.382;5.270;2022-07-21T12:10:05;1.77;;;1.55;;
55655;SDS011;41530;52.382;5.270;2022-07-21T12:15:11;3.05;;;1.92;;
55655;SDS011;41530;52.382;5.270;2022-07-21T12:18:06;2.97;;;1.95;;
55655;SDS011;41530;52.382;5.270;2022-07-21T12:20:36;4.57;;;1.98;;
55655;SDS011;41530;52.382;5.270;2022-07-21T12:23:22;1.92;;;1.63;;
55655;SDS011;41530;52.382;5.270;2022-07-21T12:25:59;2.22;;;1.70;;
55655;SDS011;41530;52.382;5.270;2022-07-21T12:28:42;2.25;;;1.48;;
55655;SDS011;41530;52.382;5.270;2022-07-21T12:31:17;2.17;;;1.33;;
55655;SDS011;41530;52.382;5.270;2022-07-21T12:33:48;1.83;;;1.48;;
55655;SDS011;41530;52.382;5.270;2022-07-21T12:36:36;2.17;;;1.40;;
55655;SDS011;41530;52.382;5.270;2022-07-21T12:39:15;2.53;;;1.73;;
55655;SDS011;41530;52.382;5.270;2022-07-21T12:42:03;2.30;;;1.20;;
55655;SDS011;41530;52.382;5.270;2022-07-21T12:44:34;4.32;;;1.38;;
55655;SDS011;41530;52.382;5.270;2022-07-21T12:47:14;2.97;;;1.23;;
55655;SDS011;41530;52.382;5.270;2022-07-21T12:50:16;3.17;;;1.20;;
55655;SDS011;41530;52.382;5.270;2022-07-21T12:52:48;4.80;;;1.03;;
55655;SDS011;41530;52.382;5.270;2022-07-21T12:55:15;1.67;;;1.15;;
55655;SDS011;41530;52.382;5.270;2022-07-21T12:57:41;2.40;;;1.10;;
55655;SDS011;41530;52.382;5.270;2022-07-21T13:00:08;3.83;;;1.20;;
55655;SDS011;41530;52.382;5.270;2022-07-21T13:02:48;3.38;;;1.30;;
55655;SDS011;41530;52.382;5.270;2022-07-21T13:05:16;4.07;;;1.10;;
55655;SDS011;41530;52.382;5.270;2022-07-21T13:07:43;3.03;;;1.00;;
55655;SDS011;41530;52.382;5.270;2022-07-21T13:10:10;4.68;;;1.30;;
55655;SDS011;41530;52.382;5.270;2022-07-21T13:12:37;2.40;;;1.20;;
55655;SDS011;41530;52.382;5.270;2022-07-21T13:15:04;4.13;;;1.50;;
55655;SDS011;41530;52.382;5.270;2022-07-21T13:17:31;3.88;;;1.55;;
55655;SDS011;41530;52.382;5.270;2022-07-21T13:19:58;3.70;;;1.70;;
55655;SDS011;41530;52.382;5.270;2022-07-21T13:22:32;3.67;;;1.50;;
55655;SDS011;41530;52.382;5.270;2022-07-21T13:24:59;4.57;;;1.50;;
55655;SDS011;41530;52.382;5.270;2022-07-21T13:27:25;3.22;;;1.42;;
55655;SDS011;41530;52.382;5.270;2022-07-21T13:29:52;3.17;;;1.55;;
55655;SDS011;41530;52.382;5.270;2022-07-21T13:32:18;2.97;;;1.30;;
55655;SDS011;41530;52.382;5.270;2022-07-21T13:34:45;3.83;;;1.20;;
55655;SDS011;41530;52.382;5.270;2022-07-21T13:37:32;1.95;;;1.25;;
55655;SDS011;41530;52.382;5.270;2022-07-21T13:39:59;4.93;;;1.35;;
55655;SDS011;41530;52.382;5.270;2022-07-21T13:42:45;3.88;;;1.55;;
55655;SDS011;41530;52.382;5.270;2022-07-21T13:45:23;2.08;;;1.38;;
55655;SDS011;41530;52.382;5.270;2022-07-21T13:47:50;2.45;;;1.40;;
55655;SDS011;41530;52.382;5.270;2022-07-21T13:50:17;1.67;;;1.30;;
55655;SDS011;41530;52.382;5.270;2022-07-21T13:52:44;3.13;;;1.55;;
55655;SDS011;41530;52.382;5.270;2022-07-21T13:55:10;2.08;;;1.63;;
55655;SDS011;41530;52.382;5.270;2022-07-21T13:57:37;3.67;;;1.90;;
55655;SDS011;41530;52.382;5.270;2022-07-21T14:00:10;2.05;;;1.60;;
55655;SDS011;41530;52.382;5.270;2022-07-21T14:02:37;3.20;;;1.67;;
55655;SDS011;41530;52.382;5.270;2022-07-21T14:05:04;2.30;;;1.80;;
55655;SDS011;41530;52.382;5.270;2022-07-21T14:07:31;5.50;;;1.77;;
55655;SDS011;41530;52.382;5.270;2022-07-21T14:09:57;1.98;;;1.58;;
55655;SDS011;41530;52.382;5.270;2022-07-21T14:12:24;2.45;;;1.77;;
55655;SDS011;41530;52.382;5.270;2022-07-21T14:14:51;1.88;;;1.67;;
55655;SDS011;41530;52.382;5.270;2022-07-21T14:17:17;2.03;;;1.52;;
55655;SDS011;41530;52.382;5.270;2022-07-21T14:19:44;2.38;;;1.40;;
55655;SDS011;41530;52.382;5.270;2022-07-21T14:22:15;1.88;;;1.70;;
55655;SDS011;41530;52.382;5.270;2022-07-21T14:24:50;2.10;;;1.50;;
55655;SDS011;41530;52.382;5.270;2022-07-21T14:27:36;1.95;;;1.40;;
55655;SDS011;41530;52.382;5.270;2022-07-21T14:30:04;2.38;;;1.35;;
55655;SDS011;41530;52.382;5.270;2022-07-21T14:32:31;1.45;;;1.15;;
55655;SDS011;41530;52.382;5.270;2022-07-21T14:34:58;1.55;;;1.40;;
55655;SDS011;41530;52.382;5.270;2022-07-21T14:37:25;3.28;;;1.73;;
55655;SDS011;41530;52.382;5.270;2022-07-21T14:39:51;1.75;;;1.38;;
55655;SDS011;41530;52.382;5.270;2022-07-21T14:42:21;1.80;;;1.45;;
55655;SDS011;41530;52.382;5.270;2022-07-21T14:44:50;2.03;;;1.40;;
55655;SDS011;41530;52.382;5.270;2022-07-21T14:47:17;1.50;;;1.25;;
55655;SDS011;41530;52.382;5.270;2022-07-21T14:49:43;1.90;;;1.70;;
55655;SDS011;41530;52.382;5.270;2022-07-21T14:52:10;3.50;;;1.70;;
55655;SDS011;41530;52.382;5.270;2022-07-21T14:54:36;2.78;;;1.52;;
55655;SDS011;41530;52.382;5.270;2022-07-21T14:57:03;1.80;;;1.67;;
55655;SDS011;41530;52.382;5.270;2022-07-21T14:59:36;2.42;;;1.80;;
55655;SDS011;41530;52.382;5.270;2022-07-21T15:02:02;2.13;;;1.83;;
55655;SDS011;41530;52.382;5.270;2022-07-21T15:04:37;2.20;;;1.65;;
55655;SDS011;41530;52.382;5.270;2022-07-21T15:07:03;2.25;;;1.83;;
55655;SDS011;41530;52.382;5.270;2022-07-21T15:09:30;6.57;;;1.88;;
55655;SDS011;41530;52.382;5.270;2022-07-21T15:11:57;2.95;;;1.30;;
55655;SDS011;41530;52.382;5.270;2022-07-21T15:14:23;2.05;;;1.20;;
55655;SDS011;41530;52.382;5.270;2022-07-21T15:16:50;5.40;;;1.10;;
55655;SDS011;41530;52.382;5.270;2022-07-21T15:19:16;2.22;;;0.80;;
55655;SDS011;41530;52.382;5.270;2022-07-21T15:21:43;2.80;;;0.95;;
55655;SDS011;41530;52.382;5.270;2022-07-21T15:24:10;1.63;;;0.70;;
55655;SDS011;41530;52.382;5.270;2022-07-21T15:26:37;1.85;;;0.70;;
55655;SDS011;41530;52.382;5.270;2022-07-21T15:29:03;0.93;;;0.50;;
55655;SDS011;41530;52.382;5.270;2022-07-21T15:31:30;0.85;;;0.50;;
55655;SDS011;41530;52.382;5.270;2022-07-21T15:33:58;3.63;;;0.43;;
55655;SDS011;41530;52.382;5.270;2022-07-21T15:36:25;0.95;;;0.40;;
55655;SDS011;41530;52.382;5.270;2022-07-21T15:38:52;1.10;;;0.32;;